Time;durP1;ratioP1;P1;durP2;ratioP2;P2;SDS_P1;SDS_P2;PMS_P1;PMS_P2;Temp;Humidity;BMP_temperature;BMP_pressure;BME280_temperature;BME280_humidity;BME280_pressure;Samples;Min_cycle;Max_cycle;Signal;HPM_P1;HPM_P2
2022/02/18 00:02:29;;;;;;;;;;;16.30;99.90;;;;;;5015632;28;609;-46
2022/02/18 00:05:13;;;;;;;;;;;16.20;99.90;;;;;;5016372;28;1259;-46
2022/02/18 00:07:58;;;;;;;;;;;16.20;99.90;;;;;;5016905;28;667;-47
2022/02/18 00:10:43;;;;;;;;;;;16.20;99.90;;;;;;5016463;28;1930;-47
2022/02/18 00:13:28;;;;;;;;;;;16.20;99.90;;;;;;5015418;28;1048;-47
2022/02/18 00:16:13;;;;;;;;;;;16.20;99.90;;;;;;5017916;28;624;-47
2022/02/18 00:18:57;;;;;;;;;;;16.10;99.90;;;;;;5014784;28;581;-47
2022/02/18 00:21:42;;;;;;;;;;;16.10;99.90;;;;;;5015807;28;620;-47
2022/02/18 00:24:26;;;;;;;;;;;16.00;99.90;;;;;;5014799;28;1449;-47
2022/02/18 00:27:11;;;;;;;;;;;16.00;99.90;;;;;;5014070;28;1670;-47
2022/02/18 00:30:00;;;;;;;;;;;16.00;99.90;;;;;;5015751;28;1898;-47
2022/02/18 00:32:44;;;;;;;;;;;16.00;99.90;;;;;;5017013;28;628;-47
2022/02/18 00:35:29;;;;;;;;;;;16.00;99.90;;;;;;5019568;28;699;-47
2022/02/18 00:38:14;;;;;;;;;;;15.90;99.90;;;;;;5019438;28;576;-47
2022/02/18 00:40:59;;;;;;;;;;;15.90;99.90;;;;;;5019674;28;612;-47
2022/02/18 00:43:43;;;;;;;;;;;15.90;99.90;;;;;;5018117;28;689;-47
2022/02/18 00:46:29;;;;;;;;;;;15.90;99.90;;;;;;5022133;28;788;-47
2022/02/18 00:49:14;;;;;;;;;;;15.90;99.90;;;;;;5019235;28;584;-47
2022/02/18 00:51:58;;;;;;;;;;;15.80;99.90;;;;;;5018949;28;1906;-47
2022/02/18 00:54:42;;;;;;;;;;;15.80;99.90;;;;;;5015198;28;1275;-47
2022/02/18 00:57:28;;;;;;;;;;;15.80;99.90;;;;;;5018164;28;612;-47
2022/02/18 01:00:15;;;;;;;;;;;15.80;99.90;;;;;;5013753;28;1429;-47
2022/02/18 01:02:59;;;;;;;;;;;15.70;99.90;;;;;;5018577;28;735;-47
2022/02/18 01:05:44;;;;;;;;;;;15.70;99.90;;;;;;5017384;28;1446;-47
2022/02/18 01:08:29;;;;;;;;;;;15.70;99.90;;;;;;5018970;28;611;-47
2022/02/18 01:11:13;;;;;;;;;;;15.60;99.90;;;;;;5018604;28;1963;-47
2022/02/18 01:13:59;;;;;;;;;;;15.60;99.90;;;;;;5018628;28;619;-47
2022/02/18 01:16:43;;;;;;;;;;;15.60;99.90;;;;;;5018755;28;644;-47
2022/02/18 01:19:29;;;;;;;;;;;15.60;99.90;;;;;;5018710;28;636;-47
2022/02/18 01:22:14;;;;;;;;;;;15.60;99.90;;;;;;5018568;28;640;-47
2022/02/18 01:25:00;;;;;;;;;;;15.60;99.90;;;;;;5014477;28;1305;-47
2022/02/18 01:27:45;;;;;;;;;;;15.50;99.90;;;;;;5016724;28;577;-57
2022/02/18 01:30:31;;;;;;;;;;;15.50;99.90;;;;;;5023359;28;1895;-47
2022/02/18 01:33:16;;;;;;;;;;;15.50;99.90;;;;;;5018033;28;609;-47
2022/02/18 01:36:01;;;;;;;;;;;15.40;99.90;;;;;;5015960;28;1331;-57
2022/02/18 01:38:45;;;;;;;;;;;15.40;99.90;;;;;;5016339;28;584;-57
2022/02/18 01:41:30;;;;;;;;;;;15.40;99.90;;;;;;5018255;28;621;-57
2022/02/18 01:44:30;;;;;;;;;;;15.40;99.90;;;;;;5017237;28;676;-57
2022/02/18 01:47:17;;;;;;;;;;;15.40;99.90;;;;;;5018066;28;636;-57
2022/02/18 01:50:03;;;;;;;;;;;15.30;99.90;;;;;;5015509;28;1968;-57
2022/02/18 01:52:49;;;;;;;;;;;15.30;99.90;;;;;;5017738;28;586;-57
2022/02/18 01:55:34;;;;;;;;;;;15.30;99.90;;;;;;5010114;28;1256;-57
2022/02/18 01:58:21;;;;;;;;;;;15.30;99.90;;;;;;5016910;28;632;-57
2022/02/18 02:01:06;;;;;;;;;;;15.30;99.90;;;;;;5013939;28;633;-57
2022/02/18 02:03:50;;;;;;;;;;;15.30;99.90;;;;;;5017589;28;612;-57
2022/02/18 02:06:35;;;;;;;;;;;15.30;99.90;;;;;;5012141;28;1242;-57
2022/02/18 02:09:20;;;;;;;;;;;15.20;99.90;;;;;;5015882;28;1370;-57
2022/02/18 02:12:04;;;;;;;;;;;15.20;99.90;;;;;;5017048;28;1915;-57
2022/02/18 02:14:49;;;;;;;;;;;15.20;99.90;;;;;;5016566;28;1453;-57
2022/02/18 02:17:34;;;;;;;;;;;15.20;99.90;;;;;;5015081;28;609;-57
2022/02/18 02:20:18;;;;;;;;;;;15.20;99.90;;;;;;5017504;28;771;-57
2022/02/18 02:23:03;;;;;;;;;;;15.20;99.90;;;;;;5017374;28;620;-57
2022/02/18 02:25:48;;;;;;;;;;;15.20;99.90;;;;;;5017659;28;616;-57
2022/02/18 02:28:32;;;;;;;;;;;15.10;99.90;;;;;;5017460;28;670;-57
2022/02/18 02:31:17;;;;;;;;;;;15.10;99.90;;;;;;5017298;28;1910;-57
2022/02/18 02:34:03;;;;;;;;;;;15.10;99.90;;;;;;5017250;28;667;-57
2022/02/18 02:36:48;;;;;;;;;;;15.10;99.90;;;;;;5017160;28;743;-57
2022/02/18 02:39:33;;;;;;;;;;;15.10;99.90;;;;;;5017392;28;632;-57
2022/02/18 02:42:18;;;;;;;;;;;15.00;99.90;;;;;;5017299;28;1117;-57
2022/02/18 02:45:03;;;;;;;;;;;15.10;99.90;;;;;;5016368;28;669;-57
2022/02/18 02:47:48;;;;;;;;;;;15.00;99.90;;;;;;5017172;28;607;-57
2022/02/18 02:50:32;;;;;;;;;;;15.00;99.90;;;;;;5017160;28;1902;-58
2022/02/18 02:53:17;;;;;;;;;;;15.00;99.90;;;;;;5017211;28;589;-57
2022/02/18 02:56:02;;;;;;;;;;;15.00;99.90;;;;;;5017125;28;727;-57
2022/02/18 02:58:49;;;;;;;;;;;15.00;99.90;;;;;;5015420;28;877;-57
2022/02/18 03:01:34;;;;;;;;;;;14.90;99.90;;;;;;5016109;28;584;-57
2022/02/18 03:04:19;;;;;;;;;;;14.90;99.90;;;;;;5016455;28;1031;-56
2022/02/18 03:07:05;;;;;;;;;;;14.90;99.90;;;;;;5016246;28;636;-57
2022/02/18 03:09:50;;;;;;;;;;;14.90;99.90;;;;;;5016829;28;655;-57
2022/02/18 03:12:34;;;;;;;;;;;14.90;99.90;;;;;;5016773;28;608;-57
2022/02/18 03:15:19;;;;;;;;;;;14.90;99.90;;;;;;5016760;28;708;-57
2022/02/18 03:18:03;;;;;;;;;;;14.80;99.90;;;;;;5016576;28;647;-57
2022/02/18 03:20:48;;;;;;;;;;;14.80;99.90;;;;;;5020455;28;950;-56
2022/02/18 03:23:33;;;;;;;;;;;14.80;99.90;;;;;;5013665;28;1247;-57
2022/02/18 03:26:19;;;;;;;;;;;14.80;99.90;;;;;;5014453;28;1333;-57
2022/02/18 03:29:04;;;;;;;;;;;14.80;99.90;;;;;;5016375;28;605;-57
2022/02/18 03:31:48;;;;;;;;;;;14.80;99.90;;;;;;5016005;28;1919;-58
2022/02/18 03:34:34;;;;;;;;;;;14.70;99.90;;;;;;5016466;28;620;-57
2022/02/18 03:37:19;;;;;;;;;;;14.70;99.90;;;;;;5016652;28;632;-47
2022/02/18 03:40:04;;;;;;;;;;;14.70;99.90;;;;;;5016358;28;762;-47
2022/02/18 03:42:49;;;;;;;;;;;14.70;99.90;;;;;;5016245;28;588;-47
2022/02/18 03:45:33;;;;;;;;;;;14.70;99.90;;;;;;5016308;28;691;-48
2022/02/18 03:48:18;;;;;;;;;;;14.70;99.90;;;;;;5015350;28;763;-47
2022/02/18 03:51:03;;;;;;;;;;;14.70;99.90;;;;;;5016071;28;1964;-47
2022/02/18 03:53:49;;;;;;;;;;;14.70;99.90;;;;;;5011800;28;1302;-47
2022/02/18 03:56:35;;;;;;;;;;;14.60;99.90;;;;;;5014918;28;653;-47
2022/02/18 03:59:21;;;;;;;;;;;14.60;99.90;;;;;;5015322;28;584;-47
2022/02/18 04:02:06;;;;;;;;;;;14.60;99.90;;;;;;5014785;28;621;-47
2022/02/18 04:04:53;;;;;;;;;;;14.60;99.90;;;;;;5014744;28;1237;-47
2022/02/18 04:07:38;;;;;;;;;;;14.60;99.90;;;;;;5015165;28;680;-47
2022/02/18 04:10:22;;;;;;;;;;;14.50;99.90;;;;;;5015859;28;1980;-47
2022/02/18 04:13:06;;;;;;;;;;;14.50;99.90;;;;;;5015890;28;592;-47
2022/02/18 04:15:51;;;;;;;;;;;14.50;99.90;;;;;;5015887;28;620;-47
2022/02/18 04:18:35;;;;;;;;;;;14.50;99.90;;;;;;5015779;28;600;-47
2022/02/18 04:21:20;;;;;;;;;;;14.50;99.90;;;;;;5015854;28;635;-47
2022/02/18 04:24:04;;;;;;;;;;;14.50;99.90;;;;;;5015915;28;706;-47
2022/02/18 04:26:50;;;;;;;;;;;14.50;99.90;;;;;;5015854;28;639;-47
2022/02/18 04:29:35;;;;;;;;;;;14.50;99.90;;;;;;5015754;28;604;-47
2022/02/18 04:32:20;;;;;;;;;;;14.40;99.90;;;;;;5015332;28;1972;-47
2022/02/18 04:35:05;;;;;;;;;;;14.50;99.90;;;;;;5015730;28;657;-47
2022/02/18 04:37:50;;;;;;;;;;;14.40;99.90;;;;;;5015722;28;662;-47
2022/02/18 04:40:35;;;;;;;;;;;14.40;99.90;;;;;;5015673;28;640;-47
2022/02/18 04:43:19;;;;;;;;;;;14.40;99.90;;;;;;5014611;28;625;-57
2022/02/18 04:46:04;;;;;;;;;;;14.40;99.90;;;;;;5015636;28;644;-57
2022/02/18 04:48:49;;;;;;;;;;;14.40;99.90;;;;;;5014796;28;590;-57
2022/02/18 04:51:33;;;;;;;;;;;14.40;99.90;;;;;;5015345;28;1975;-58
2022/02/18 04:54:18;;;;;;;;;;;14.40;99.90;;;;;;5010552;28;1480;-57
2022/02/18 04:57:02;;;;;;;;;;;14.30;99.90;;;;;;5014968;28;680;-57
2022/02/18 04:59:47;;;;;;;;;;;14.30;99.90;;;;;;5014562;28;743;-57
2022/02/18 05:02:32;;;;;;;;;;;14.30;99.90;;;;;;5015031;28;628;-48
2022/02/18 05:05:18;;;;;;;;;;;14.30;99.90;;;;;;5016752;28;1135;-55
2022/02/18 05:08:03;;;;;;;;;;;14.30;99.90;;;;;;5015501;28;633;-57
2022/02/18 05:10:48;;;;;;;;;;;14.30;99.90;;;;;;5015344;28;1915;-57
2022/02/18 05:13:32;;;;;;;;;;;14.30;99.90;;;;;;5020379;28;958;-57
2022/02/18 05:16:17;;;;;;;;;;;14.30;99.90;;;;;;5015368;28;600;-57
2022/02/18 05:19:02;;;;;;;;;;;14.30;99.90;;;;;;5015423;28;568;-57
2022/02/18 05:21:47;;;;;;;;;;;14.30;99.90;;;;;;5015092;28;1242;-57
2022/02/18 05:24:31;;;;;;;;;;;14.20;99.90;;;;;;5018800;28;696;-57
2022/02/18 05:27:16;;;;;;;;;;;14.20;99.90;;;;;;5018719;28;596;-57
2022/02/18 05:30:01;;;;;;;;;;;14.20;99.90;;;;;;5015577;28;1140;-57
2022/02/18 05:32:45;;;;;;;;;;;14.20;99.90;;;;;;5018450;28;754;-57
2022/02/18 05:35:30;;;;;;;;;;;14.20;99.90;;;;;;5018252;28;671;-57
2022/02/18 05:38:14;;;;;;;;;;;14.20;99.90;;;;;;5018217;28;688;-57
2022/02/18 05:40:59;;;;;;;;;;;14.20;99.90;;;;;;5018150;28;652;-57
2022/02/18 05:43:43;;;;;;;;;;;14.10;99.90;;;;;;5018313;28;624;-57
2022/02/18 05:46:27;;;;;;;;;;;14.10;99.90;;;;;;5018324;28;628;-57
2022/02/18 05:49:12;;;;;;;;;;;14.10;99.90;;;;;;5018190;28;696;-57
2022/02/18 05:51:57;;;;;;;;;;;14.10;99.90;;;;;;5018000;28;1910;-57
2022/02/18 05:54:42;;;;;;;;;;;14.10;99.90;;;;;;5013757;28;1405;-57
2022/02/18 05:57:26;;;;;;;;;;;14.10;99.90;;;;;;5017657;28;876;-58
2022/02/18 06:00:11;;;;;;;;;;;14.10;99.90;;;;;;5016545;28;818;-57
2022/02/18 06:02:55;;;;;;;;;;;14.20;99.90;;;;;;5017297;28;612;-57
2022/02/18 06:05:40;;;;;;;;;;;14.20;99.90;;;;;;5016723;28;1197;-57
2022/02/18 06:08:25;;;;;;;;;;;14.20;99.90;;;;;;5018055;28;580;-47
2022/02/18 06:11:09;;;;;;;;;;;14.20;99.90;;;;;;5017732;28;1906;-47
2022/02/18 06:13:54;;;;;;;;;;;14.20;99.90;;;;;;5017741;28;759;-47
2022/02/18 06:16:38;;;;;;;;;;;14.30;99.90;;;;;;5017827;28;619;-47
2022/02/18 06:19:23;;;;;;;;;;;14.30;99.90;;;;;;5017835;28;620;-47
2022/02/18 06:22:08;;;;;;;;;;;14.40;99.90;;;;;;5017740;28;735;-47
2022/02/18 06:24:52;;;;;;;;;;;14.40;99.90;;;;;;5017621;28;632;-48
2022/02/18 06:27:38;;;;;;;;;;;14.50;99.90;;;;;;5017680;28;620;-47
2022/02/18 06:30:22;;;;;;;;;;;14.50;99.90;;;;;;5016951;28;641;-47
2022/02/18 06:33:08;;;;;;;;;;;14.60;99.90;;;;;;5015902;28;928;-47
2022/02/18 06:35:52;;;;;;;;;;;14.60;99.90;;;;;;5017122;28;628;-47
2022/02/18 06:38:37;;;;;;;;;;;14.60;99.90;;;;;;5017491;28;619;-47
2022/02/18 06:41:21;;;;;;;;;;;14.70;99.90;;;;;;5017024;28;628;-47
2022/02/18 06:44:09;;;;;;;;;;;14.80;99.90;;;;;;5015684;28;1114;-47
2022/02/18 06:46:56;;;;;;;;;;;14.80;99.90;;;;;;5017175;28;576;-47
2022/02/18 06:49:44;;;;;;;;;;;14.80;99.90;;;;;;5013628;28;635;-47
2022/02/18 06:52:29;;;;;;;;;;;14.90;99.90;;;;;;5016896;28;1965;-47
2022/02/18 06:55:14;;;;;;;;;;;14.90;99.90;;;;;;5013869;28;1300;-47
2022/02/18 06:57:58;;;;;;;;;;;15.00;99.90;;;;;;5016145;28;621;-47
2022/02/18 07:00:43;;;;;;;;;;;15.00;99.90;;;;;;5015791;28;817;-47
2022/02/18 07:03:29;;;;;;;;;;;15.00;99.90;;;;;;5016545;28;646;-47
2022/02/18 07:06:14;;;;;;;;;;;15.00;99.90;;;;;;5016267;28;1161;-47
2022/02/18 07:08:59;;;;;;;;;;;15.10;99.90;;;;;;5015831;28;1162;-47
2022/02/18 07:11:44;;;;;;;;;;;15.10;99.90;;;;;;5016585;28;1914;-47
2022/02/18 07:14:29;;;;;;;;;;;15.10;99.90;;;;;;5015915;28;641;-47
2022/02/18 07:17:13;;;;;;;;;;;15.10;99.90;;;;;;5024526;28;938;-47
2022/02/18 07:19:59;;;;;;;;;;;15.20;99.90;;;;;;5016718;28;632;-47
2022/02/18 07:22:44;;;;;;;;;;;15.20;99.90;;;;;;5016582;28;585;-47
2022/02/18 07:25:29;;;;;;;;;;;15.20;99.90;;;;;;5015022;28;1386;-47
2022/02/18 07:28:17;;;;;;;;;;;15.30;99.90;;;;;;5011397;28;625;-47
2022/02/18 07:31:02;;;;;;;;;;;15.30;99.90;;;;;;5015833;28;1973;-47
2022/02/18 07:33:46;;;;;;;;;;;15.30;99.90;;;;;;5016028;28;608;-47
2022/02/18 07:36:31;;;;;;;;;;;15.30;99.90;;;;;;5012256;28;644;-47
2022/02/18 07:39:15;;;;;;;;;;;15.40;99.90;;;;;;5014613;28;1246;-47
2022/02/18 07:42:00;;;;;;;;;;;15.40;99.90;;;;;;5008686;28;1319;-58
2022/02/18 07:44:45;;;;;;;;;;;15.40;99.90;;;;;;5012527;28;627;-58
2022/02/18 07:47:29;;;;;;;;;;;15.40;99.90;;;;;;5016091;28;660;-58
2022/02/18 07:50:14;;;;;;;;;;;15.50;99.90;;;;;;5016268;28;668;-57
2022/02/18 07:53:00;;;;;;;;;;;15.50;99.90;;;;;;5014984;28;1914;-58
2022/02/18 07:55:45;;;;;;;;;;;15.50;99.90;;;;;;5010647;28;1338;-57
2022/02/18 07:58:30;;;;;;;;;;;15.50;99.90;;;;;;5011877;28;872;-57
2022/02/18 08:01:17;;;;;;;;;;;15.60;99.90;;;;;;5015351;28;675;-57
2022/02/18 08:04:04;;;;;;;;;;;15.60;99.90;;;;;;5015883;28;703;-57
2022/02/18 08:06:48;;;;;;;;;;;15.60;99.90;;;;;;5015699;28;601;-57
2022/02/18 08:09:33;;;;;;;;;;;15.60;99.90;;;;;;5015761;28;627;-57
2022/02/18 08:12:18;;;;;;;;;;;15.70;99.90;;;;;;5015375;28;1906;-57
2022/02/18 08:15:03;;;;;;;;;;;15.70;99.90;;;;;;5015735;28;1019;-56
2022/02/18 08:17:47;;;;;;;;;;;15.70;99.90;;;;;;5015750;28;683;-57
2022/02/18 08:20:32;;;;;;;;;;;15.70;99.90;;;;;;5015886;28;604;-57
2022/02/18 08:23:17;;;;;;;;;;;15.80;99.90;;;;;;5015886;28;584;-57
2022/02/18 08:26:02;;;;;;;;;;;15.80;99.90;;;;;;5015788;28;648;-57
2022/02/18 08:28:47;;;;;;;;;;;15.80;99.90;;;;;;5015841;28;751;-57
2022/02/18 08:31:31;;;;;;;;;;;15.80;99.90;;;;;;5015583;28;1906;-57
2022/02/18 08:34:16;;;;;;;;;;;15.80;99.90;;;;;;5015620;28;596;-57
2022/02/18 08:37:01;;;;;;;;;;;15.80;99.90;;;;;;5014935;28;712;-57
2022/02/18 08:39:46;;;;;;;;;;;15.90;99.90;;;;;;5015757;28;564;-57
2022/02/18 08:42:30;;;;;;;;;;;15.80;99.90;;;;;;5015630;28;601;-57
2022/02/18 08:45:15;;;;;;;;;;;15.80;99.90;;;;;;5015440;28;708;-58
2022/02/18 08:48:00;;;;;;;;;;;15.80;99.90;;;;;;5015462;28;600;-59
2022/02/18 08:50:44;;;;;;;;;;;15.80;99.90;;;;;;5015643;28;593;-57
2022/02/18 08:53:30;;;;;;;;;;;15.90;99.90;;;;;;5012203;28;1268;-57
2022/02/18 08:56:15;;;;;;;;;;;15.90;99.90;;;;;;5012000;28;959;-57
2022/02/18 08:59:02;;;;;;;;;;;15.90;99.90;;;;;;5018227;28;806;-57
2022/02/18 09:01:47;;;;;;;;;;;15.90;99.90;;;;;;5015936;28;1241;-57
2022/02/18 09:04:32;;;;;;;;;;;16.00;99.90;;;;;;5018645;28;1066;-57
2022/02/18 09:07:16;;;;;;;;;;;16.00;99.90;;;;;;5019150;28;755;-57
2022/02/18 09:10:01;;;;;;;;;;;16.00;99.90;;;;;;5020212;28;820;-57
2022/02/18 09:12:46;;;;;;;;;;;16.10;99.90;;;;;;5027035;28;1910;-57
2022/02/18 09:15:30;;;;;;;;;;;16.10;99.90;;;;;;5019648;28;1188;-57
2022/02/18 09:18:15;;;;;;;;;;;16.10;99.90;;;;;;5015052;28;1168;-57
2022/02/18 09:21:00;;;;;;;;;;;16.10;99.90;;;;;;5014085;28;1175;-57
2022/02/18 09:23:44;;;;;;;;;;;16.20;99.90;;;;;;5017052;28;1235;-57
2022/02/18 09:26:29;;;;;;;;;;;16.20;99.90;;;;;;5014337;28;1347;-47
2022/02/18 09:29:16;;;;;;;;;;;16.20;99.90;;;;;;5016871;28;1293;-47
2022/02/18 09:32:03;;;;;;;;;;;16.20;99.90;;;;;;5018333;28;1899;-47
2022/02/18 09:34:48;;;;;;;;;;;16.20;99.90;;;;;;5011706;28;988;-47
2022/02/18 09:37:34;;;;;;;;;;;16.30;99.90;;;;;;5015416;28;1208;-47
2022/02/18 09:40:18;;;;;;;;;;;16.30;99.90;;;;;;5014326;28;1196;-47
2022/02/18 09:43:03;;;;;;;;;;;16.30;99.90;;;;;;5015479;28;1175;-49
2022/02/18 09:45:47;;;;;;;;;;;16.30;99.90;;;;;;5016233;28;969;-47
2022/02/18 09:48:33;;;;;;;;;;;16.30;99.90;;;;;;5019576;28;973;-47
2022/02/18 09:51:19;;;;;;;;;;;16.40;99.90;;;;;;5012124;28;1975;-47
2022/02/18 09:54:03;;;;;;;;;;;16.40;99.90;;;;;;5014889;28;1542;-57
2022/02/18 09:56:49;;;;;;;;;;;16.40;99.90;;;;;;5016142;28;1008;-57
2022/02/18 09:59:34;;;;;;;;;;;16.40;99.90;;;;;;5015342;28;1187;-57
2022/02/18 10:02:19;;;;;;;;;;;16.40;99.90;;;;;;5013790;28;1184;-57
2022/02/18 10:05:04;;;;;;;;;;;16.40;99.90;;;;;;5008196;28;1226;-57
2022/02/18 10:08:04;;;;;;;;;;;16.50;99.90;;;;;;5017419;28;1230;-57
2022/02/18 10:11:01;;;;;;;;;;;16.50;99.90;;;;;;5018994;28;715;-57
2022/02/18 10:13:46;;;;;;;;;;;16.60;99.90;;;;;;5016214;28;1267;-57
2022/02/18 10:16:33;;;;;;;;;;;16.70;99.90;;;;;;5018223;28;1151;-57
2022/02/18 10:19:21;;;;;;;;;;;16.80;99.90;;;;;;5010520;28;1266;-57
2022/02/18 10:22:11;;;;;;;;;;;16.80;99.90;;;;;;5011725;28;1274;-57
2022/02/18 10:25:05;;;;;;;;;;;16.90;99.90;;;;;;5015399;28;1124;-57
2022/02/18 10:27:50;;;;;;;;;;;17.00;99.90;;;;;;5015926;28;1192;-57
2022/02/18 10:30:34;;;;;;;;;;;17.10;99.90;;;;;;5008049;28;1124;-57
2022/02/18 10:33:25;;;;;;;;;;;17.10;99.90;;;;;;5009507;28;1956;-57
2022/02/18 10:36:15;;;;;;;;;;;17.20;99.90;;;;;;5013400;28;984;-57
2022/02/18 10:39:20;;;;;;;;;;;17.20;99.90;;;;;;5014716;28;1112;-57
2022/02/18 10:42:04;;;;;;;;;;;17.30;99.90;;;;;;5014544;28;1179;-57
2022/02/18 10:45:06;;;;;;;;;;;17.30;99.90;;;;;;5011789;28;1215;-57
2022/02/18 10:48:04;;;;;;;;;;;17.40;99.90;;;;;;5015879;28;1207;-57
2022/02/18 10:51:05;;;;;;;;;;;17.40;99.90;;;;;;5013042;28;968;-57
2022/02/18 10:53:51;;;;;;;;;;;17.40;99.90;;;;;;5011965;28;1450;-57
2022/02/18 10:56:36;;;;;;;;;;;17.50;99.90;;;;;;5014203;28;1061;-57
2022/02/18 10:59:31;;;;;;;;;;;17.50;99.90;;;;;;5011203;28;1120;-58
2022/02/18 11:02:35;;;;;;;;;;;17.50;99.90;;;;;;5014599;28;1037;-57
2022/02/18 11:05:20;;;;;;;;;;;17.50;99.90;;;;;;5017112;28;1168;-57
2022/02/18 11:08:05;;;;;;;;;;;17.50;99.90;;;;;;5016804;28;1112;-57
2022/02/18 11:10:50;;;;;;;;;;;17.60;99.90;;;;;;5011371;28;688;-57
2022/02/18 11:13:44;;;;;;;;;;;17.50;99.90;;;;;;5017270;28;1687;-57
2022/02/18 11:16:30;;;;;;;;;;;17.50;99.90;;;;;;5016050;28;1568;-57
2022/02/18 11:19:16;;;;;;;;;;;17.50;99.90;;;;;;5012210;28;1648;-57
2022/02/18 11:22:01;;;;;;;;;;;17.40;99.90;;;;;;5015914;28;1493;-56
2022/02/18 11:24:48;;;;;;;;;;;17.30;99.90;;;;;;5011112;28;1315;-57
2022/02/18 11:27:35;;;;;;;;;;;17.30;99.90;;;;;;5042484;28;1269;-56
2022/02/18 11:30:20;;;;;;;;;;;17.30;99.90;;;;;;5011587;28;1021;-56
2022/02/18 11:33:24;;;;;;;;;;;17.30;99.90;;;;;;5012063;28;1969;-57
2022/02/18 11:36:18;;;;;;;;;;;17.30;99.90;;;;;;5013979;28;1313;-57
2022/02/18 11:39:09;;;;;;;;;;;17.30;99.90;;;;;;5017163;28;687;-56
2022/02/18 11:42:12;;;;;;;;;;;17.30;99.90;;;;;;5025376;28;1201;-56
2022/02/18 11:44:57;;;;;;;;;;;17.30;99.90;;;;;;5013456;28;982;-56
2022/02/18 11:47:43;;;;;;;;;;;17.30;99.90;;;;;;5015144;28;1715;-55
2022/02/18 11:50:31;;;;;;;;;;;17.40;99.90;;;;;;5010828;28;576;-56
2022/02/18 11:53:36;;;;;;;;;;;17.40;99.90;;;;;;5016351;28;1914;-55
2022/02/18 11:56:40;;;;;;;;;;;17.40;99.90;;;;;;5013695;28;1355;-60
2022/02/18 12:00:03;;;;;;;;;;;17.40;99.90;;;;;;5008482;28;1347;-59
2022/02/18 12:02:53;;;;;;;;;;;17.50;99.90;;;;;;4959772;28;1065;-59
2022/02/18 12:05:57;;;;;;;;;;;17.50;99.90;;;;;;4964532;28;1609;-60
2022/02/18 12:08:49;;;;;;;;;;;17.50;99.90;;;;;;4963940;28;1419;-60
2022/02/18 12:11:43;;;;;;;;;;;17.60;99.90;;;;;;4961112;28;1981;-60
2022/02/18 12:14:28;;;;;;;;;;;17.60;99.90;;;;;;4966590;28;1494;-60
2022/02/18 12:17:13;;;;;;;;;;;17.70;99.90;;;;;;4968909;28;1050;-56
2022/02/18 12:20:08;;;;;;;;;;;17.70;99.90;;;;;;4964401;28;1607;-53
2022/02/18 12:22:55;;;;;;;;;;;17.70;99.90;;;;;;4969387;28;1561;-53
2022/02/18 12:25:39;;;;;;;;;;;17.80;99.90;;;;;;4956545;28;1530;-53
2022/02/18 12:28:24;;;;;;;;;;;17.80;99.90;;;;;;4962891;28;1472;-51
2022/02/18 12:31:09;;;;;;;;;;;17.90;99.90;;;;;;4967546;28;1267;-52
2022/02/18 12:34:00;;;;;;;;;;;17.90;99.90;;;;;;5006075;28;1105;-56
2022/02/18 12:36:44;;;;;;;;;;;17.90;99.90;;;;;;5019623;28;600;-52
2022/02/18 12:39:36;;;;;;;;;;;17.90;99.90;;;;;;5018289;28;897;-50
2022/02/18 12:42:23;;;;;;;;;;;17.90;99.90;;;;;;5018688;28;604;-50
2022/02/18 12:45:09;;;;;;;;;;;18.00;99.90;;;;;;5016771;28;964;-46
2022/02/18 12:47:55;;;;;;;;;;;18.00;99.90;;;;;;5018747;28;1115;-46
2022/02/18 12:50:45;;;;;;;;;;;18.00;99.90;;;;;;5015527;28;1008;-47
